首页
METAR-TAF:

METAR-TAF

机场 :

宁波市, 中华人民共和国

寧波櫟社國際機場

纬度: 29-49-36N, 经度: 121-27-43E, 海拔: 4米

当前天气观测

该预报发布于47分钟前的05:00 UTC
风速6节,风向,在北转西北东北之间变化
温度 9°C
湿度 87%
气压 1025 hPa
能見度: 4000
散云层高于600英尺
多云层高于1600英尺
阴天层高于5000英尺
小雨, 轻雾

METAR: ZSNB 250500Z 01003MPS 340V040 4000 -RA BR SCT006 BKN016 OVC050 09/07 Q1025 NOSIG

时间: 13:47 (05:47 UTC)

预报

该预报发布于3小时和38分钟前的02:09 UTC
预报有效从25日的 06点(UTC)到 26日的 06点(UTC)
风速8节,风向
能見度: 4000
多云层高于2000英尺
轻雾

TAF: ZSNB 250209Z 2506/2606 35004MPS 4000 BR BKN020 TX10/2506Z TN03/2521Z

超过4000个机场的气象观测和天气预报(METAR&TAF报告)。

可查询的气象台以黄色和红色小点在地图上表示。

将鼠标移到小点上方,可查看气象台名称。

然后点击查看天气观测和预报。

如需切换地图:点击带黑十字的绿色按钮放大地图;点击带横线的绿色按钮缩小地图;或者点击绿色箭头查看邻近地区的地图。


METAR-TAF: